Main page
METAR-TAF:

METAR-TAF

Airports :

Vršac International Airport

Vršac, Serbia

latitude: 45-09N, longitude: 021-19E, elevation: 83 m

Current weather observation

The report was made 26 minutes ago, at 20:30 UTC
Calm wind
Temperature 2°C
Humidity 87%
Pressure 1025 hPa
Visibility 10 km or more
no clouds below 1500 m and no cumulonimbus

METAR: LYVR 282030Z AUTO 00000KT CAVOK 02/00 Q1025

Time: 22:56 (20:56 UTC)

Forecast

The report was made 3 hours and 56 minutes ago, at 17:00 UTC
Forecast valid from 28 at 18 UTC to 29 at 18 UTC
Wind 6 kt from the Northeast
Visibility 10 km or more
no clouds below 1500 m and no cumulonimbus
Becoming
from 29 at 03 UTC to 29 at 05 UTC
Wind 15 kt from the Southeast with gusts up to 25 kt
Temporary
from 29 at 07 UTC to 29 at 14 UTC
Wind 25 kt from the Southeast with gusts up to 35 kt

TAF: LYVR 281700Z 2818/2918 05006KT CAVOK TX17/2913Z TN00/2900Z BECMG 2903/2905 13015G25KT TEMPO 2907/2914 13025G35KT

Weather observations and forecasts of more than 4000 airports (METAR and TAF reports).

The available stations are represented by yellow and red dots on the map.

Hover mouse over dot to see the name of the station.

Then click to see weather observations and forecasts.

To change the map : click on the green buttons with a black cross to zoom in, on the green button with a dash to zoom out, or on the green arrows for adjacent maps.


METAR-TAF: